This is the latest recevied weather packets stored in our database for station/object HK2LS-SM. If no packets are shown the sender has not sent any weather packets the latest 10 day(s).
| Time | Temp. | Humidity | Pressure | Rain* | Wind** | Luminosity | Snow |
|---|---|---|---|---|---|---|---|
| 1777815027 | 30° C | 75% | 1009.5 hPa | 0 mm | - | - | - |
| 1777812286 | 29.44° C | 76% | 1009.5 hPa | 0 mm | - | - | - |
| 1777810084 | 28.33° C | 80% | 1009.5 hPa | 0 mm | - | - | - |
| 1777799396 | 28.89° C | 81% | 1008.1 hPa | 0 mm | - | - | - |
| 1777797258 | 28.89° C | 78% | 1008.1 hPa | 0 mm | - | - | - |
| 1777796323 | 28.33° C | 78% | 1008.1 hPa | 0 mm | - | - | - |
| 1777795690 | 28.89° C | 77% | 1008.1 hPa | 0 mm | - | - | - |
| 1777795389 | 28.89° C | 77% | 1008.1 hPa | 0 mm | - | - | - |
| 1777793585 | 28.89° C | 76% | 1007.5 hPa | 0 mm | - | - | - |
| 1777790750 | 28.89° C | 77% | 1007.5 hPa | 0 mm | - | - | - |
| 1777789847 | 28.89° C | 77% | 1007.5 hPa | 0 mm | - | - | - |
| 1777785899 | 28.89° C | 82% | 1007.5 hPa | 0 mm | - | - | - |
| 1777621033 | 29.44° C | 74% | 1004.7 hPa | 0 mm | - | - | - |
| 1777620431 | 29.44° C | 73% | 1004.7 hPa | 0 mm | - | - | - |
| 1777615186 | 30° C | 73% | 1005.1 hPa | 0 mm | - | - | - |
| 1777614885 | 30° C | 72% | 1005.1 hPa | 0 mm | - | - | - |
| 1777614584 | 30° C | 73% | 1005.1 hPa | 0 mm | - | - | - |
| 1777613317 | 29.44° C | 73% | 1005.1 hPa | 0 mm | - | - | - |
| 1777613015 | 29.44° C | 73% | 1005.1 hPa | 0 mm | - | - | - |
| 1777612382 | 30° C | 73% | 1005.4 hPa | 0 mm | - | - | - |
| 1777611416 | 30° C | 72% | 1005.4 hPa | 0 mm | - | - | - |
| 1777610179 | 29.44° C | 74% | 1005.8 hPa | 0 mm | - | - | - |
| 1777606772 | 29.44° C | 74% | 1006.1 hPa | 0 mm | - | - | - |
| 1777605443 | 29.44° C | 74% | 1006.1 hPa | 0 mm | - | - | - |
| 1777603841 | 30° C | 73% | 1006.1 hPa | 0 mm | - | - | - |
* Rain latest hour (hover to see other rain measurements)
** Current wind speed in m/s (hover to see current wind gust speed)